Ribeiro Goncalves, Brazil
Current Conditions -  °F | °C
As of 10:00 AM on Friday 24 Oct 2014 (Local Time) from SBIZ Reporting Station
Broken Clouds Broken Clouds  
Wind Chill: 81°   Ceiling: 1800
Heat Index: 85°   Visibility: 6mi
Dew Point: 73°   Wind: 2mph
Humidity: 79%   Direction: 80°E
Pressure: 29.91"   Gusts: NA
Location:  7.56°S, 45.24°W
Report Text: SBIZ 241300Z 08002KT 9999 SCT015 BKN018 27/23 Q1013
Loading
Personal Weather Stations






























Interactive Weather Map
Tropical Storm Tracking
New forecast layout! Learn more

10-Day Weather Forecast

Advertisements
Track Severe Weather on mobile